Time;durP1;ratioP1;P1;durP2;ratioP2;P2;SDS_P1;SDS_P2;PMS_P1;PMS_P2;Temp;Humidity;BMP_temperature;BMP_pressure;BME280_temperature;BME280_humidity;BME280_pressure;Samples;Min_cycle;Max_cycle;Signal;HPM_P1;HPM_P2
2021/11/02 00:01:33;;;;;;;3.83;1.93;;;10.10;99.90;;;;;;5048416;28;20395;-69
2021/11/02 00:03:59;;;;;;;10.27;3.13;;;10.10;99.90;;;;;;5048538;28;20424;-69
2021/11/02 00:06:24;;;;;;;6.50;2.20;;;10.00;99.90;;;;;;5048596;28;20183;-69
2021/11/02 00:08:50;;;;;;;7.03;2.00;;;10.00;99.90;;;;;;5063990;28;20204;-68
2021/11/02 00:11:15;;;;;;;5.17;2.00;;;10.00;99.90;;;;;;5068122;28;20618;-68
2021/11/02 00:13:45;;;;;;;3.30;1.93;;;10.00;99.90;;;;;;5067936;28;20613;-69
2021/11/02 00:16:13;;;;;;;5.07;2.00;;;10.00;99.90;;;;;;5068084;28;20579;-69
2021/11/02 00:18:45;;;;;;;7.33;2.07;;;10.00;99.90;;;;;;5067841;28;20403;-69
2021/11/02 00:21:12;;;;;;;7.30;2.30;;;10.00;99.90;;;;;;5054363;28;20783;-69
2021/11/02 00:23:38;;;;;;;6.13;2.50;;;10.10;99.90;;;;;;5036788;28;20462;-69
2021/11/02 00:26:06;;;;;;;5.47;2.03;;;10.10;99.90;;;;;;5052480;28;20954;-69
2021/11/02 00:28:33;;;;;;;5.30;2.50;;;10.10;99.90;;;;;;5054428;28;21027;-69
2021/11/02 00:30:59;;;;;;;7.33;2.40;;;10.10;99.90;;;;;;5045491;28;20759;-69
2021/11/02 00:33:25;;;;;;;5.20;2.80;;;10.10;99.90;;;;;;5054114;28;20413;-69
2021/11/02 00:35:51;;;;;;;6.73;2.30;;;10.00;99.90;;;;;;5054424;28;20480;-69
2021/11/02 00:38:17;;;;;;;6.50;2.37;;;10.10;99.90;;;;;;5054475;28;20182;-69
2021/11/02 00:40:44;;;;;;;5.10;2.30;;;10.10;99.90;;;;;;5054537;28;20456;-69
2021/11/02 00:43:10;;;;;;;3.60;2.00;;;10.10;99.90;;;;;;5035205;28;20176;-69
2021/11/02 00:45:37;;;;;;;5.00;2.00;;;10.00;99.90;;;;;;5034514;28;20406;-69
2021/11/02 00:48:07;;;;;;;4.73;2.10;;;10.00;99.90;;;;;;5034306;28;20461;-70
2021/11/02 00:50:36;;;;;;;4.30;2.40;;;10.00;99.90;;;;;;5034247;28;20397;-68
2021/11/02 00:53:03;;;;;;;4.93;2.13;;;10.00;99.90;;;;;;5033956;28;20428;-69
2021/11/02 00:55:29;;;;;;;3.97;2.17;;;10.10;99.90;;;;;;5034142;28;20397;-68
2021/11/02 00:57:54;;;;;;;7.07;2.20;;;10.10;99.90;;;;;;5034376;28;20401;-68
2021/11/02 01:00:24;;;;;;;5.30;1.93;;;10.10;99.90;;;;;;5041326;28;20741;-68
2021/11/02 01:02:50;;;;;;;3.23;2.07;;;10.10;99.90;;;;;;5033972;28;20161;-68
2021/11/02 01:05:16;;;;;;;5.87;1.83;;;10.10;99.90;;;;;;5033865;28;20483;-68
2021/11/02 01:07:42;;;;;;;5.97;1.97;;;10.10;99.90;;;;;;5033714;28;20801;-68
2021/11/02 01:10:13;;;;;;;6.43;2.17;;;10.20;99.90;;;;;;5033964;28;20418;-69
2021/11/02 01:12:39;;;;;;;4.23;1.83;;;10.20;99.90;;;;;;5033927;28;20393;-68
2021/11/02 01:15:06;;;;;;;3.93;1.80;;;10.20;99.90;;;;;;5034959;28;20395;-68
2021/11/02 01:17:31;;;;;;;3.93;2.00;;;10.20;99.90;;;;;;5053460;28;20389;-68
2021/11/02 01:19:57;;;;;;;4.30;1.83;;;10.20;99.90;;;;;;5053603;28;20388;-68
2021/11/02 01:22:22;;;;;;;5.03;2.00;;;10.10;99.90;;;;;;5053542;28;20568;-69
2021/11/02 01:24:48;;;;;;;4.47;2.07;;;10.10;99.90;;;;;;5053559;28;20161;-68
2021/11/02 01:27:14;;;;;;;4.50;1.87;;;10.20;99.90;;;;;;5053502;28;20185;-69
2021/11/02 01:29:39;;;;;;;4.43;2.40;;;10.20;99.90;;;;;;5042970;28;20281;-68
2021/11/02 01:32:05;;;;;;;8.03;2.23;;;10.20;99.90;;;;;;5032968;28;20163;-69
2021/11/02 01:34:31;;;;;;;3.60;2.23;;;10.20;99.90;;;;;;5033495;28;20168;-68
2021/11/02 01:36:56;;;;;;;4.50;1.77;;;10.10;99.90;;;;;;5033583;28;20297;-68
2021/11/02 01:39:23;;;;;;;3.43;2.07;;;10.10;99.90;;;;;;5033129;28;20189;-68
2021/11/02 01:41:49;;;;;;;4.33;1.70;;;10.10;99.90;;;;;;5033184;28;20159;-68
2021/11/02 01:44:15;;;;;;;4.20;1.90;;;10.10;99.90;;;;;;5033176;28;20780;-68
2021/11/02 01:46:43;;;;;;;4.20;1.90;;;10.10;99.90;;;;;;5033231;28;20412;-67
2021/11/02 01:49:09;;;;;;;5.80;2.17;;;10.10;99.90;;;;;;5033686;28;20634;-67
2021/11/02 01:51:35;;;;;;;7.70;1.87;;;10.10;99.90;;;;;;5033115;28;20421;-69
2021/11/02 01:54:03;;;;;;;4.70;2.50;;;10.10;99.90;;;;;;5033076;28;20170;-68
2021/11/02 01:56:29;;;;;;;4.70;2.10;;;10.10;99.90;;;;;;5032713;28;20487;-68
2021/11/02 01:58:55;;;;;;;4.77;1.90;;;10.10;99.90;;;;;;5038383;28;20454;-70
2021/11/02 02:01:35;;;;;;;5.07;2.10;;;10.10;99.90;;;;;;5034416;28;20279;-67
2021/11/02 02:07:03;;;;;;;2.40;1.77;;;10.10;99.90;;;;;;5063001;28;20520;-68
2021/11/02 02:09:43;;;;;;;3.30;1.77;;;10.20;99.90;;;;;;5048163;28;20809;-68
2021/11/02 02:18:06;;;;;;;4.53;2.10;;;10.10;99.90;;;;;;5069337;28;20512;-69
2021/11/02 02:21:01;;;;;;;3.27;2.00;;;10.10;99.90;;;;;;5068381;28;20413;-69
2021/11/02 02:24:06;;;;;;;4.93;1.60;;;10.10;99.90;;;;;;5063877;28;20498;-69
2021/11/02 02:29:33;;;;;;;8.80;2.17;;;9.90;99.90;;;;;;5085526;28;20537;-70
2021/11/02 02:32:00;;;;;;;6.67;1.80;;;9.90;99.90;;;;;;5069237;28;20449;-69
2021/11/02 02:34:26;;;;;;;6.53;2.03;;;9.80;99.90;;;;;;5069201;28;20456;-70
2021/11/02 02:36:53;;;;;;;4.23;2.27;;;9.80;99.90;;;;;;5069299;28;20393;-69
2021/11/02 02:39:22;;;;;;;3.23;2.03;;;9.70;99.90;;;;;;5069241;28;20386;-69
2021/11/02 02:41:48;;;;;;;4.20;2.23;;;9.70;99.90;;;;;;5069114;28;20764;-69
2021/11/02 02:44:15;;;;;;;4.97;2.27;;;9.70;99.90;;;;;;5068892;28;20402;-70
2021/11/02 02:46:41;;;;;;;5.50;2.10;;;9.60;99.90;;;;;;5069140;28;20418;-69
2021/11/02 02:49:09;;;;;;;6.23;2.07;;;9.60;99.90;;;;;;5068920;28;20888;-70
2021/11/02 02:51:36;;;;;;;22.13;12.30;;;9.50;99.90;;;;;;5068979;28;20419;-68
2021/11/02 02:54:02;;;;;;;20.33;11.70;;;9.60;99.90;;;;;;5068747;28;20390;-68
2021/11/02 02:56:29;;;;;;;13.40;7.70;;;9.50;99.90;;;;;;5068834;28;20383;-69
2021/11/02 02:59:00;;;;;;;14.50;8.33;;;9.50;99.90;;;;;;5066576;28;20970;-69
2021/11/02 03:01:27;;;;;;;10.93;6.50;;;9.50;99.90;;;;;;5057510;28;20418;-69
2021/11/02 03:04:02;;;;;;;13.00;5.67;;;9.50;99.90;;;;;;5048763;28;20417;-68
2021/11/02 03:06:32;;;;;;;8.43;3.47;;;9.50;99.90;;;;;;5048616;28;20391;-68
2021/11/02 03:08:58;;;;;;;7.37;2.60;;;9.60;99.90;;;;;;5048536;28;20958;-69
2021/11/02 03:11:26;;;;;;;3.90;2.27;;;9.60;99.90;;;;;;5048478;28;20418;-68
2021/11/02 03:13:55;;;;;;;3.97;2.53;;;9.60;99.90;;;;;;5048513;28;20486;-68
2021/11/02 03:16:33;;;;;;;4.10;1.93;;;9.70;99.90;;;;;;5048485;28;20407;-68
2021/11/02 03:55:09;;;;;;;2.33;1.80;;;9.60;99.90;;;;;;5089526;27;20620;-72
2021/11/02 04:45:25;;;;;;;2.77;1.90;;;9.30;99.90;;;;;;5068435;28;20946;-71
2021/11/02 04:58:10;;;;;;;3.87;1.93;;;9.30;99.90;;;;;;5068282;28;20390;-70
2021/11/02 05:07:26;;;;;;;2.37;1.90;;;9.20;99.90;;;;;;5068284;28;20398;-71
2021/11/02 05:57:43;;;;;;;3.97;2.47;;;8.60;99.90;;;;;;5046665;28;20486;-72
2021/11/02 06:00:28;;;;;;;6.53;2.60;;;8.50;99.90;;;;;;5030227;28;20479;-72
2021/11/02 06:03:22;;;;;;;4.73;2.30;;;8.50;99.90;;;;;;5046188;28;20427;-71
2021/11/02 06:05:46;;;;;;;3.00;2.27;;;8.50;99.90;;;;;;5046345;28;20874;-71
2021/11/02 06:11:26;;;;;;;3.93;2.83;;;8.50;99.90;;;;;;5050580;28;21030;-70
2021/11/02 06:28:14;;;;;;;3.93;2.53;;;8.40;99.90;;;;;;5035681;28;20843;-70
2021/11/02 06:30:45;;;;;;;5.20;2.30;;;8.40;99.90;;;;;;5027943;28;20514;-70
2021/11/02 06:50:02;;;;;;;5.50;1.93;;;8.40;99.90;;;;;;5068277;28;21007;-72
2021/11/02 06:55:58;;;;;;;3.83;2.13;;;8.40;99.90;;;;;;5059835;28;20671;-74
2021/11/02 06:58:52;;;;;;;3.50;2.17;;;8.50;99.90;;;;;;5029649;28;20410;-73
2021/11/02 07:18:06;;;;;;;5.83;2.53;;;8.70;99.90;;;;;;5048546;28;20536;-73
2021/11/02 07:20:45;;;;;;;2.53;1.93;;;8.70;99.90;;;;;;5049428;28;20592;-73
2021/11/02 07:23:26;;;;;;;3.43;1.80;;;8.70;99.90;;;;;;5049628;28;20400;-74
2021/11/02 07:29:24;;;;;;;10.87;2.70;;;8.70;99.90;;;;;;5039268;28;20435;-73
2021/11/02 08:45:11;;;;;;;4.07;2.13;;;9.70;99.90;;;;;;5067548;28;20439;-71
2021/11/02 08:47:41;;;;;;;3.77;1.90;;;9.70;99.90;;;;;;5066684;28;20799;-71
2021/11/02 08:50:09;;;;;;;3.23;1.70;;;9.80;99.90;;;;;;5057740;28;20914;-71
2021/11/02 08:52:37;;;;;;;3.20;1.60;;;9.80;99.90;;;;;;5058228;28;20458;-71
2021/11/02 08:55:05;;;;;;;2.90;1.47;;;9.90;99.90;;;;;;5058027;28;20413;-71
2021/11/02 08:57:31;;;;;;;2.27;1.60;;;10.00;99.90;;;;;;5061801;28;20429;-72
2021/11/02 08:59:57;;;;;;;2.17;1.40;;;10.00;99.90;;;;;;5053226;28;20949;-71
2021/11/02 09:02:29;;;;;;;4.67;1.80;;;10.10;99.90;;;;;;5064398;28;20434;-71
2021/11/02 09:05:02;;;;;;;3.63;1.90;;;10.10;99.90;;;;;;5052572;28;20194;-71
2021/11/02 09:07:28;;;;;;;3.20;1.70;;;10.20;99.90;;;;;;5053696;28;20485;-71
2021/11/02 09:09:56;;;;;;;2.90;2.00;;;10.20;99.90;;;;;;5047210;28;20433;-71
2021/11/02 09:12:31;;;;;;;4.27;2.00;;;10.20;99.90;;;;;;5050153;28;20486;-71
2021/11/02 09:15:01;;;;;;;5.60;2.17;;;10.30;99.90;;;;;;5049761;28;20440;-71
2021/11/02 09:17:32;;;;;;;3.60;1.90;;;10.30;99.90;;;;;;5060348;28;20457;-72
2021/11/02 09:20:01;;;;;;;3.93;1.97;;;10.30;99.90;;;;;;5057322;28;20476;-72
2021/11/02 09:22:27;;;;;;;2.43;1.97;;;10.30;99.90;;;;;;5053347;28;20423;-71
2021/11/02 09:24:53;;;;;;;3.63;2.00;;;10.40;99.90;;;;;;5049596;28;20445;-71
2021/11/02 09:27:20;;;;;;;4.40;2.70;;;10.50;99.90;;;;;;5049790;28;20462;-71
2021/11/02 09:29:46;;;;;;;4.47;2.17;;;10.60;99.90;;;;;;5051308;28;20430;-71
2021/11/02 09:32:12;;;;;;;3.63;2.00;;;10.80;99.90;;;;;;5050495;28;20415;-71
2021/11/02 09:34:38;;;;;;;4.20;1.77;;;10.90;99.90;;;;;;5049213;28;20787;-71
2021/11/02 09:40:34;;;;;;;3.33;1.33;;;11.10;99.90;;;;;;5077995;28;20535;-71
2021/11/02 09:46:17;;;;;;;2.17;1.30;;;11.10;99.90;;;;;;5085642;27;20599;-72
2021/11/02 09:55:03;;;;;;;1.87;1.37;;;11.10;99.90;;;;;;5053087;28;20537;-71
2021/11/02 10:14:32;;;;;;;2.13;1.60;;;11.20;99.90;;;;;;5085393;28;20511;-71
2021/11/02 10:25:19;;;;;;;3.53;1.87;;;11.30;99.90;;;;;;5063381;28;20535;-72
2021/11/02 10:28:25;;;;;;;1.30;1.13;;;11.40;99.90;;;;;;5078098;28;20488;-72
2021/11/02 10:33:37;;;;;;;2.80;1.33;;;11.50;99.90;;;;;;5067828;28;20520;-72
2021/11/02 10:36:34;;;;;;;2.63;1.67;;;11.60;99.90;;;;;;5062060;28;20451;-72
2021/11/02 10:39:14;;;;;;;2.47;1.23;;;11.60;99.90;;;;;;5050963;28;20428;-72
2021/11/02 10:41:45;;;;;;;2.57;1.67;;;11.60;99.90;;;;;;5046539;28;20410;-72
2021/11/02 10:50:11;;;;;;;2.37;1.17;;;11.60;99.90;;;;;;5147617;27;20958;-72
2021/11/02 10:52:38;;;;;;;2.47;0.97;;;11.60;99.90;;;;;;5146048;27;20420;-72
2021/11/02 10:55:23;;;;;;;2.50;1.00;;;11.80;99.90;;;;;;5149143;27;20652;-72
2021/11/02 11:00:42;;;;;;;4.00;1.70;;;11.80;99.90;;;;;;5066587;28;20552;-71
2021/11/02 11:03:10;;;;;;;2.07;1.60;;;12.00;99.90;;;;;;5067639;28;20401;-71
2021/11/02 11:05:36;;;;;;;1.40;1.17;;;12.00;99.90;;;;;;5049845;28;20418;-72
2021/11/02 11:08:03;;;;;;;1.47;1.20;;;12.10;99.90;;;;;;5048966;28;20388;-72
2021/11/02 11:10:30;;;;;;;3.17;2.80;;;12.00;99.90;;;;;;5044260;28;20495;-72
2021/11/02 11:12:57;;;;;;;2.37;2.17;;;12.00;99.90;;;;;;5041103;28;20428;-72
2021/11/02 11:15:28;;;;;;;2.50;1.80;;;12.00;99.90;;;;;;5049329;28;20478;-71
2021/11/02 11:18:00;;;;;;;3.27;1.80;;;12.00;99.90;;;;;;5044319;28;20485;-72
2021/11/02 11:20:26;;;;;;;4.50;1.50;;;12.10;99.90;;;;;;5054614;28;20477;-71
2021/11/02 11:22:53;;;;;;;2.20;1.60;;;12.20;99.90;;;;;;5048392;28;20403;-71
2021/11/02 11:25:44;;;;;;;2.40;1.23;;;12.20;99.90;;;;;;5056859;28;20179;-71
2021/11/02 11:28:14;;;;;;;2.07;0.90;;;12.30;99.90;;;;;;5041567;28;20522;-71
2021/11/02 11:30:41;;;;;;;2.77;1.40;;;12.40;99.90;;;;;;5028669;28;20419;-71
2021/11/02 11:33:11;;;;;;;2.23;0.97;;;12.50;99.90;;;;;;5036604;28;20426;-71
2021/11/02 11:35:39;;;;;;;2.50;1.20;;;12.60;99.90;;;;;;5047366;28;20946;-71
2021/11/02 11:38:06;;;;;;;1.80;1.00;;;12.70;99.90;;;;;;5051300;28;20418;-71
2021/11/02 11:40:35;;;;;;;1.60;0.90;;;12.70;99.90;;;;;;5046962;28;20549;-71
2021/11/02 11:43:03;;;;;;;2.33;0.90;;;12.80;99.90;;;;;;5046379;28;20433;-71
2021/11/02 11:45:31;;;;;;;2.43;1.33;;;12.80;99.90;;;;;;5046013;28;20821;-71
2021/11/02 11:48:21;;;;;;;5.43;1.63;;;12.90;99.90;;;;;;5053566;28;20422;-71
2021/11/02 11:50:47;;;;;;;5.00;1.77;;;12.90;99.90;;;;;;5040308;28;20506;-71
2021/11/02 11:53:18;;;;;;;2.83;2.60;;;12.80;99.90;;;;;;5031256;28;20894;-72
2021/11/02 11:55:46;;;;;;;1.67;1.27;;;12.70;99.90;;;;;;5047911;28;20462;-71
2021/11/02 12:00:53;;;;;;;1.60;1.30;;;12.60;99.90;;;;;;5058846;28;21107;-72
2021/11/02 12:03:39;;;;;;;4.63;1.90;;;12.60;99.90;;;;;;5042472;28;20423;-71
2021/11/02 12:08:51;;;;;;;2.30;1.00;;;12.60;99.90;;;;;;5066012;28;20565;-71
2021/11/02 12:11:19;;;;;;;2.40;1.10;;;12.30;99.90;;;;;;5054432;28;20433;-72
2021/11/02 12:13:48;;;;;;;3.00;1.20;;;12.30;99.90;;;;;;5029217;28;20825;-72
2021/11/02 12:16:24;;;;;;;2.20;1.90;;;12.40;99.90;;;;;;5035821;28;20423;-72
2021/11/02 12:18:56;;;;;;;1.87;0.90;;;12.40;99.90;;;;;;5045028;28;20426;-71
2021/11/02 12:21:25;;;;;;;1.27;0.90;;;12.30;99.90;;;;;;5050567;28;20742;-71
2021/11/02 12:23:51;;;;;;;1.10;0.70;;;12.30;99.90;;;;;;5046108;28;20834;-72
2021/11/02 12:26:17;;;;;;;4.10;1.13;;;12.20;99.90;;;;;;5040673;28;20513;-71
2021/11/02 12:28:46;;;;;;;1.67;0.83;;;12.20;99.90;;;;;;5033838;28;20923;-72
2021/11/02 12:31:15;;;;;;;1.20;1.00;;;12.20;99.90;;;;;;5046682;28;20422;-72
2021/11/02 12:33:51;;;;;;;1.03;0.90;;;12.20;99.90;;;;;;5034262;28;20431;-71
2021/11/02 12:39:03;;;;;;;9.07;3.93;;;12.10;99.90;;;;;;5063674;28;20530;-72
2021/11/02 12:41:29;;;;;;;2.70;1.10;;;12.10;99.90;;;;;;5068800;28;20422;-71
2021/11/02 12:46:41;;;;;;;1.00;0.80;;;12.10;99.90;;;;;;5068083;28;20520;-71
2021/11/02 12:49:08;;;;;;;1.53;1.00;;;12.00;99.90;;;;;;5041446;28;20434;-72
2021/11/02 12:51:48;;;;;;;3.03;1.00;;;12.00;99.90;;;;;;5039968;28;20761;-71
2021/11/02 12:54:18;;;;;;;1.27;1.07;;;12.00;99.90;;;;;;5029426;28;20926;-71
2021/11/02 12:56:51;;;;;;;3.40;0.90;;;12.10;99.90;;;;;;5028732;28;20389;-71
2021/11/02 12:59:21;;;;;;;3.80;1.07;;;12.00;99.90;;;;;;5038001;28;20855;-71
2021/11/02 13:01:49;;;;;;;1.03;0.80;;;11.90;99.90;;;;;;5028888;28;20407;-71
2021/11/02 13:04:17;;;;;;;3.30;1.10;;;11.90;99.90;;;;;;5028966;28;20511;-71
2021/11/02 13:06:50;;;;;;;1.63;1.00;;;12.00;99.90;;;;;;5028674;28;20486;-71
2021/11/02 13:09:19;;;;;;;1.57;1.30;;;12.10;99.90;;;;;;5036085;28;20437;-71
2021/11/02 13:11:47;;;;;;;1.80;1.47;;;12.10;99.90;;;;;;5031470;28;20419;-71
2021/11/02 13:14:14;;;;;;;4.87;3.00;;;12.10;99.90;;;;;;5028765;28;20434;-71
2021/11/02 13:17:00;;;;;;;9.07;7.60;;;12.10;99.90;;;;;;5044805;28;20414;-71
2021/11/02 13:19:36;;;;;;;8.20;6.40;;;12.20;99.90;;;;;;5031509;28;20501;-71
2021/11/02 13:22:22;;;;;;;4.80;2.77;;;12.20;99.90;;;;;;5027973;28;20431;-72
2021/11/02 13:25:09;;;;;;;4.03;1.60;;;12.30;99.90;;;;;;5027611;28;20537;-71
2021/11/02 13:38:34;;;;;;;1.87;1.03;;;12.30;99.90;;;;;;5038585;28;20539;-72
2021/11/02 13:43:42;;;;;;;2.13;1.43;;;12.00;99.90;;;;;;5092021;27;20532;-73
2021/11/02 13:46:10;;;;;;;3.47;2.00;;;11.90;99.90;;;;;;5063037;28;20483;-71
2021/11/02 13:48:37;;;;;;;2.20;1.27;;;11.80;99.90;;;;;;5067944;28;20425;-72
2021/11/02 13:51:05;;;;;;;1.10;1.00;;;11.80;99.90;;;;;;5068602;28;20476;-72
2021/11/02 13:53:34;;;;;;;2.47;1.60;;;11.80;99.90;;;;;;5067882;28;20410;-72
2021/11/02 13:56:02;;;;;;;1.77;1.23;;;11.90;99.90;;;;;;5066924;28;20477;-72
2021/11/02 13:58:28;;;;;;;1.57;1.23;;;11.90;99.90;;;;;;5067103;28;20449;-73
2021/11/02 14:00:54;;;;;;;1.93;1.40;;;11.80;99.90;;;;;;5067949;28;20426;-72
2021/11/02 14:03:25;;;;;;;2.90;1.40;;;11.80;99.90;;;;;;5055052;28;20881;-72
2021/11/02 14:05:52;;;;;;;4.10;1.67;;;11.70;99.90;;;;;;5042783;28;20411;-73
2021/11/02 14:08:20;;;;;;;1.30;1.20;;;11.70;99.90;;;;;;5035019;28;20426;-72
2021/11/02 14:10:55;;;;;;;5.70;1.57;;;11.60;99.90;;;;;;5042339;28;20454;-73
2021/11/02 14:13:43;;;;;;;2.20;2.00;;;11.60;99.90;;;;;;5035292;28;20457;-73
2021/11/02 14:16:09;;;;;;;4.20;1.67;;;11.70;99.90;;;;;;5029760;28;20414;-73
2021/11/02 14:18:35;;;;;;;1.73;1.40;;;11.70;99.90;;;;;;5045137;28;20426;-73
2021/11/02 14:21:01;;;;;;;2.23;1.40;;;11.80;99.90;;;;;;5046576;28;20415;-72
2021/11/02 14:26:26;;;;;;;2.57;2.10;;;11.70;99.90;;;;;;5043566;28;20556;-73
2021/11/02 14:37:16;;;;;;;9.03;7.90;;;11.20;99.90;;;;;;5095466;27;20576;-72
2021/11/02 14:40:04;;;;;;;6.50;2.27;;;11.20;99.90;;;;;;5091519;28;20907;-72
2021/11/02 14:42:50;;;;;;;4.43;1.67;;;11.20;99.90;;;;;;5092638;28;20416;-73
2021/11/02 14:45:18;;;;;;;4.60;1.90;;;11.20;99.90;;;;;;5089113;28;20459;-73
2021/11/02 14:47:45;;;;;;;2.00;1.60;;;11.30;99.90;;;;;;5098117;28;20858;-75
2021/11/02 14:50:37;;;;;;;2.90;1.50;;;11.20;99.90;;;;;;5099204;28;20408;-75
2021/11/02 14:53:14;;;;;;;7.63;1.83;;;11.10;99.90;;;;;;5089525;28;20950;-76
2021/11/02 14:56:02;;;;;;;4.67;2.23;;;11.10;99.90;;;;;;5088900;28;20491;-75
2021/11/02 15:04:18;;;;;;;1.60;1.50;;;11.00;99.90;;;;;;5069189;28;20504;-71
2021/11/02 15:06:52;;;;;;;1.43;1.33;;;10.80;99.90;;;;;;5068831;28;20493;-71
2021/11/02 15:09:19;;;;;;;1.40;1.30;;;10.70;99.90;;;;;;5057472;28;20501;-72
2021/11/02 15:11:47;;;;;;;3.37;1.63;;;10.70;99.90;;;;;;5049018;28;20450;-72
2021/11/02 15:16:52;;;;;;;1.70;1.50;;;10.60;99.90;;;;;;5069292;28;21055;-70
2021/11/02 15:19:22;;;;;;;2.97;2.33;;;10.60;99.90;;;;;;5068855;28;20420;-70
2021/11/02 15:21:58;;;;;;;4.27;2.97;;;10.50;99.90;;;;;;5061173;28;20913;-70
2021/11/02 15:27:11;;;;;;;3.50;1.63;;;10.40;99.90;;;;;;5058825;28;21113;-71
2021/11/02 15:29:41;;;;;;;1.47;1.20;;;10.10;99.90;;;;;;5048942;28;20412;-72
2021/11/02 15:37:37;;;;;;;7.40;1.50;;;10.00;99.90;;;;;;5068842;28;20536;-76
2021/11/02 15:43:00;;;;;;;1.93;1.33;;;9.80;99.90;;;;;;5060209;28;20610;-72
2021/11/02 15:45:31;;;;;;;3.40;1.57;;;9.80;99.90;;;;;;5049118;28;20459;-71
2021/11/02 15:48:15;;;;;;;2.90;1.40;;;9.70;99.90;;;;;;5049049;28;20392;-72
2021/11/02 15:50:45;;;;;;;2.00;1.30;;;9.70;99.90;;;;;;5049087;28;20392;-72
2021/11/02 15:53:12;;;;;;;2.90;2.37;;;9.80;99.90;;;;;;5049266;28;20887;-71
2021/11/02 15:55:38;;;;;;;2.57;1.93;;;9.80;99.90;;;;;;5048272;28;20425;-71
2021/11/02 15:58:06;;;;;;;2.40;2.20;;;9.90;99.90;;;;;;5049209;28;20919;-70
2021/11/02 16:03:13;;;;;;;2.20;1.60;;;9.90;99.90;;;;;;5069417;28;20516;-72
2021/11/02 16:05:42;;;;;;;3.60;2.17;;;9.90;99.90;;;;;;5069129;28;20408;-71
2021/11/02 16:08:24;;;;;;;2.90;1.60;;;9.90;99.90;;;;;;5069312;28;20418;-72
2021/11/02 16:10:51;;;;;;;2.93;2.37;;;9.90;99.90;;;;;;5069368;28;20393;-71
2021/11/02 16:13:16;;;;;;;2.73;2.23;;;10.00;99.90;;;;;;5068922;28;20763;-71
2021/11/02 16:15:43;;;;;;;4.90;2.60;;;9.90;99.90;;;;;;5069206;28;20492;-72
2021/11/02 16:20:48;;;;;;;2.30;2.10;;;10.00;99.90;;;;;;5105237;27;20518;-71
2021/11/02 16:23:19;;;;;;;5.17;2.90;;;9.90;99.90;;;;;;5089603;28;20411;-71
2021/11/02 16:25:47;;;;;;;5.53;3.00;;;9.90;99.90;;;;;;5089230;28;20240;-72
2021/11/02 16:28:18;;;;;;;3.00;2.23;;;9.90;99.90;;;;;;5089809;28;20932;-71
2021/11/02 16:30:50;;;;;;;4.30;1.90;;;9.90;99.90;;;;;;5088937;28;20409;-72
2021/11/02 16:33:17;;;;;;;2.93;2.60;;;9.90;99.90;;;;;;5085825;28;20412;-71
2021/11/02 16:35:46;;;;;;;5.23;2.83;;;9.80;99.90;;;;;;5069070;28;20422;-72
2021/11/02 16:38:36;;;;;;;2.27;1.77;;;9.70;99.90;;;;;;5089172;28;20386;-71
2021/11/02 16:43:58;;;;;;;5.13;2.47;;;9.70;99.90;;;;;;5069415;28;20535;-72
2021/11/02 16:49:03;;;;;;;2.80;2.23;;;9.60;99.90;;;;;;5069270;28;20517;-72
2021/11/02 16:54:29;;;;;;;3.30;2.63;;;9.60;99.90;;;;;;5069394;28;20543;-71
2021/11/02 17:00:04;;;;;;;2.97;2.70;;;9.60;99.90;;;;;;5069267;28;20556;-74
2021/11/02 17:02:37;;;;;;;2.97;2.43;;;9.60;99.90;;;;;;5063708;28;20451;-74
2021/11/02 17:18:45;;;;;;;2.70;1.90;;;9.60;99.90;;;;;;5069016;28;20514;-71
2021/11/02 17:21:13;;;;;;;3.23;2.80;;;9.60;99.90;;;;;;5030830;28;20454;-71
2021/11/02 17:23:42;;;;;;;4.40;4.00;;;9.50;99.90;;;;;;5029389;28;20458;-71
2021/11/02 17:26:10;;;;;;;3.50;3.17;;;9.50;99.90;;;;;;5047558;28;20403;-71
2021/11/02 17:28:36;;;;;;;3.43;3.10;;;9.50;99.90;;;;;;5049477;28;20752;-71
2021/11/02 17:31:05;;;;;;;4.60;3.60;;;9.50;99.90;;;;;;5048908;28;20404;-71
2021/11/02 17:33:31;;;;;;;2.83;2.53;;;9.50;99.90;;;;;;5049245;28;20801;-71
2021/11/02 17:35:58;;;;;;;5.00;3.10;;;9.50;99.90;;;;;;5046883;28;20502;-71
2021/11/02 17:38:24;;;;;;;3.17;2.67;;;9.50;99.90;;;;;;5068137;28;20467;-71
2021/11/02 17:40:51;;;;;;;3.17;2.50;;;9.50;99.90;;;;;;5062662;28;20446;-71
2021/11/02 17:43:18;;;;;;;2.43;2.23;;;9.50;99.90;;;;;;5046079;28;20396;-71
2021/11/02 17:45:44;;;;;;;2.50;2.30;;;9.50;99.90;;;;;;5054046;28;20427;-70
2021/11/02 17:48:15;;;;;;;2.83;2.33;;;9.50;99.90;;;;;;5049669;28;20904;-71
2021/11/02 17:50:41;;;;;;;2.37;2.00;;;9.50;99.90;;;;;;5045164;28;20435;-71
2021/11/02 17:53:07;;;;;;;3.30;2.50;;;9.50;99.90;;;;;;5060664;28;20403;-71
2021/11/02 17:55:33;;;;;;;4.23;2.70;;;9.50;99.90;;;;;;5063159;28;20542;-71
2021/11/02 17:58:01;;;;;;;3.60;2.87;;;9.50;99.90;;;;;;5045220;28;20469;-70
2021/11/02 18:00:28;;;;;;;3.00;2.70;;;9.50;99.90;;;;;;5039221;28;20613;-70
2021/11/02 18:02:56;;;;;;;2.90;2.60;;;9.50;99.90;;;;;;5031853;28;20434;-71
2021/11/02 18:05:25;;;;;;;3.37;3.07;;;9.50;99.90;;;;;;5054410;28;20461;-71
2021/11/02 18:07:52;;;;;;;3.80;2.93;;;9.40;99.90;;;;;;5042801;28;20824;-71
2021/11/02 18:10:19;;;;;;;3.20;2.90;;;9.40;99.90;;;;;;5067995;28;20406;-71
2021/11/02 18:12:45;;;;;;;6.90;5.40;;;9.40;99.90;;;;;;5055053;28;20818;-71
2021/11/02 18:15:10;;;;;;;4.90;4.10;;;9.30;99.90;;;;;;5045312;28;20435;-71
2021/11/02 18:17:47;;;;;;;4.23;3.83;;;9.30;99.90;;;;;;5028190;28;20264;-72
2021/11/02 18:20:14;;;;;;;4.87;4.37;;;9.30;99.90;;;;;;5029209;28;20163;-71
2021/11/02 18:22:43;;;;;;;6.43;4.33;;;9.30;99.90;;;;;;5028206;28;20408;-72
2021/11/02 18:25:09;;;;;;;6.27;5.13;;;9.30;99.90;;;;;;5028312;28;20464;-71
2021/11/02 18:27:35;;;;;;;5.87;4.50;;;9.20;99.90;;;;;;5026747;28;20398;-71
2021/11/02 18:30:02;;;;;;;5.50;5.00;;;9.20;99.90;;;;;;5021454;28;20816;-70
2021/11/02 18:32:28;;;;;;;6.90;5.90;;;9.30;99.90;;;;;;5019110;28;20183;-71
2021/11/02 18:34:54;;;;;;;5.93;5.43;;;9.30;99.90;;;;;;5034558;28;20425;-71
2021/11/02 18:37:20;;;;;;;6.23;5.57;;;9.30;99.90;;;;;;5022754;28;20623;-71
2021/11/02 18:39:47;;;;;;;7.60;6.77;;;9.30;99.90;;;;;;5051676;28;20412;-71
2021/11/02 18:42:14;;;;;;;8.70;7.70;;;9.30;99.90;;;;;;5024437;28;20456;-70
2021/11/02 18:44:40;;;;;;;7.73;6.27;;;9.30;99.90;;;;;;5032129;28;20426;-71
2021/11/02 18:47:06;;;;;;;7.87;7.07;;;9.30;99.90;;;;;;5054279;28;20394;-71
2021/11/02 18:49:32;;;;;;;7.30;6.60;;;9.30;99.90;;;;;;5036891;28;20923;-71
2021/11/02 18:52:00;;;;;;;10.63;7.90;;;9.30;99.90;;;;;;5035479;28;20442;-71
2021/11/02 18:54:26;;;;;;;7.97;7.17;;;9.30;99.90;;;;;;5028600;28;20845;-71
2021/11/02 18:56:52;;;;;;;8.70;7.80;;;9.30;99.90;;;;;;5036120;28;20451;-71
2021/11/02 18:59:18;;;;;;;9.53;8.10;;;9.30;99.90;;;;;;5041639;28;20205;-71
2021/11/02 19:01:45;;;;;;;9.10;8.23;;;9.20;99.90;;;;;;5017799;28;20437;-71
2021/11/02 19:04:12;;;;;;;9.70;8.80;;;9.20;99.90;;;;;;5046942;28;20399;-70
2021/11/02 19:06:39;;;;;;;12.43;9.73;;;9.20;99.90;;;;;;5046836;28;20427;-70
2021/11/02 19:09:06;;;;;;;10.80;9.73;;;9.20;99.90;;;;;;5054376;28;20414;-70
2021/11/02 19:11:32;;;;;;;14.40;10.60;;;9.20;99.90;;;;;;5053861;28;20409;-71
2021/11/02 19:13:58;;;;;;;15.57;12.93;;;9.20;99.90;;;;;;5053846;28;20405;-71
2021/11/02 19:16:24;;;;;;;13.00;11.70;;;9.20;99.90;;;;;;5053819;28;20225;-71
2021/11/02 19:18:49;;;;;;;12.60;11.07;;;9.20;99.90;;;;;;5050601;28;20474;-71
2021/11/02 19:21:15;;;;;;;13.10;11.70;;;9.20;99.90;;;;;;5034206;28;20894;-71
2021/11/02 19:23:41;;;;;;;12.60;11.00;;;9.20;99.90;;;;;;5026998;28;20720;-71
2021/11/02 19:26:08;;;;;;;15.23;12.10;;;9.20;99.90;;;;;;5014043;28;20157;-71
2021/11/02 19:28:35;;;;;;;12.60;11.27;;;9.30;99.90;;;;;;5014045;28;20162;-71
2021/11/02 19:31:01;;;;;;;12.53;11.43;;;9.30;99.90;;;;;;5021188;28;20447;-71
2021/11/02 19:33:27;;;;;;;13.50;10.77;;;9.30;99.90;;;;;;5013883;28;20397;-71
2021/11/02 19:35:53;;;;;;;13.10;10.83;;;9.30;99.90;;;;;;5014126;28;20157;-71
2021/11/02 19:38:19;;;;;;;12.07;10.90;;;9.30;99.90;;;;;;5013674;28;20447;-71
2021/11/02 19:40:46;;;;;;;12.27;11.07;;;9.30;99.90;;;;;;5013130;28;20427;-71
2021/11/02 19:43:12;;;;;;;13.83;12.47;;;9.30;99.90;;;;;;5013676;28;20801;-71
2021/11/02 19:45:40;;;;;;;16.60;13.73;;;9.30;99.90;;;;;;5013510;28;20394;-71
2021/11/02 19:48:07;;;;;;;14.87;13.40;;;9.40;99.90;;;;;;5013752;28;20401;-71
2021/11/02 19:50:33;;;;;;;14.70;13.23;;;9.40;99.90;;;;;;5013600;28;20918;-71
2021/11/02 19:52:58;;;;;;;15.67;13.63;;;9.30;99.90;;;;;;5013519;28;20390;-71
2021/11/02 19:55:29;;;;;;;12.70;11.60;;;9.40;99.90;;;;;;5013231;28;20398;-72
2021/11/02 19:57:56;;;;;;;14.20;12.83;;;9.40;99.90;;;;;;5013935;28;20211;-72
2021/11/02 20:00:25;;;;;;;13.30;12.10;;;9.40;99.90;;;;;;5012919;28;20448;-72
2021/11/02 20:02:51;;;;;;;12.73;11.30;;;9.40;99.90;;;;;;5013555;28;20463;-72
2021/11/02 20:05:16;;;;;;;12.20;11.00;;;9.40;99.90;;;;;;5013368;28;20390;-72
2021/11/02 20:07:48;;;;;;;12.27;11.10;;;9.40;99.90;;;;;;5013292;28;20164;-72
2021/11/02 20:10:16;;;;;;;12.20;11.00;;;9.40;99.90;;;;;;5013654;28;20736;-72